Time;durP1;ratioP1;P1;durP2;ratioP2;P2;SDS_P1;SDS_P2;PMS_P1;PMS_P2;Temp;Humidity;BMP_temperature;BMP_pressure;BME280_temperature;BME280_humidity;BME280_pressure;Samples;Min_cycle;Max_cycle;Signal;HPM_P1;HPM_P2
2022/12/02 00:00:18;;;;;;;5.03;3.37;;;;;;;-141.28;100.00;51158.59;5058364;28;20484;-74
2022/12/02 00:02:46;;;;;;;6.67;3.37;;;;;;;-141.28;100.00;51260.69;5058044;28;20452;-74
2022/12/02 00:05:29;;;;;;;4.73;3.37;;;;;;;-141.28;100.00;51276.41;5060409;28;20454;-74
2022/12/02 00:08:14;;;;;;;4.83;3.50;;;;;;;-141.28;100.00;51225.34;5077737;28;20446;-75
2022/12/02 00:10:44;;;;;;;5.40;3.30;;;;;;;-141.28;100.00;51264.63;5077707;28;20443;-78
2022/12/02 00:13:19;;;;;;;5.30;3.53;;;;;;;-141.28;100.00;51284.25;5066199;28;20451;-78
2022/12/02 00:15:49;;;;;;;7.07;3.67;;;;;;;-141.28;100.00;51366.72;5053556;28;20458;-75
2022/12/02 00:18:24;;;;;;;5.07;3.30;;;;;;;-141.28;100.00;51421.69;5062487;28;20447;-75
2022/12/02 00:21:00;;;;;;;5.37;3.30;;;;;;;-141.28;100.00;51390.28;5063030;28;20857;-73
2022/12/02 00:23:29;;;;;;;4.73;3.27;;;;;;;-141.28;100.00;51382.44;5064316;28;20439;-77
2022/12/02 00:25:56;;;;;;;5.80;3.30;;;;;;;-141.28;100.00;51415.81;5052053;28;20482;-76
2022/12/02 00:28:24;;;;;;;4.43;2.87;;;;;;;-141.28;100.00;51460.97;5051868;28;20444;-77
2022/12/02 00:30:52;;;;;;;6.17;3.20;;;;;;;-141.28;100.00;51523.78;5051674;28;20451;-77
2022/12/02 00:33:19;;;;;;;4.10;2.80;;;;;;;-141.28;100.00;51588.59;5051813;28;20455;-75
2022/12/02 00:35:46;;;;;;;4.43;3.00;;;;;;;-141.28;100.00;51515.94;5051755;28;21087;-77
2022/12/02 00:38:14;;;;;;;3.83;2.83;;;;;;;-141.28;100.00;51512.00;5052478;28;20464;-75
2022/12/02 00:40:44;;;;;;;3.97;2.70;;;;;;;-141.28;100.00;51594.47;5051494;28;20520;-76
2022/12/02 00:48:53;;;;;;;4.40;2.73;;;;;;;-141.28;100.00;51512.00;5069168;28;20434;-74
2022/12/02 00:51:27;;;;;;;4.73;3.03;;;;;;;-141.28;100.00;51517.91;5068803;28;20463;-73
2022/12/02 00:53:55;;;;;;;5.10;3.10;;;;;;;-141.28;100.00;51570.91;5081076;28;20503;-78
2022/12/02 00:56:24;;;;;;;5.90;3.73;;;;;;;-141.28;100.00;51602.34;5057427;28;20497;-75
2022/12/02 00:58:51;;;;;;;5.47;3.47;;;;;;;-141.28;100.00;51618.03;5070382;28;20555;-74
2022/12/02 01:01:18;;;;;;;5.73;3.87;;;;;;;-141.28;100.00;51724.06;5069504;28;20455;-75
2022/12/02 01:03:48;;;;;;;6.23;4.20;;;;;;;-141.28;100.00;51810.47;5070977;28;20459;-74
2022/12/02 01:06:27;;;;;;;5.93;3.60;;;;;;;-141.28;100.00;51798.69;5060459;28;20966;-74
2022/12/02 01:09:00;;;;;;;7.40;3.93;;;;;;;-141.28;100.00;51865.47;5063005;28;20455;-75
2022/12/02 01:11:38;;;;;;;4.57;3.20;;;;;;;-141.28;100.00;51869.38;5064409;28;20447;-74
2022/12/02 01:14:17;;;;;;;6.50;3.67;;;;;;;-141.28;100.00;51837.97;5051843;28;20443;-75
2022/12/02 01:16:47;;;;;;;6.33;3.83;;;;;;;-141.28;100.00;51802.63;5057596;28;20511;-75
2022/12/02 01:19:21;;;;;;;7.47;3.80;;;;;;;-141.28;100.00;51837.97;5077082;28;20478;-76
2022/12/02 01:24:31;;;;;;;6.60;4.00;;;;;;;-141.28;100.00;51826.19;5069273;28;20995;-77
2022/12/02 01:27:00;;;;;;;6.93;4.13;;;;;;;-141.28;100.00;51830.09;5067704;28;20508;-77
2022/12/02 01:29:26;;;;;;;6.20;4.00;;;;;;;-141.28;100.00;51877.25;5063990;28;20547;-75
2022/12/02 01:31:54;;;;;;;6.53;4.13;;;;;;;-141.28;100.00;51873.31;5063982;28;20454;-75
2022/12/02 01:34:23;;;;;;;7.23;4.03;;;;;;;-141.28;100.00;51861.53;5050776;28;20962;-78
2022/12/02 01:36:50;;;;;;;5.93;3.80;;;;;;;-141.28;100.00;51869.38;5050860;28;21139;-76
2022/12/02 01:39:17;;;;;;;5.53;3.73;;;;;;;-141.28;100.00;51873.31;5051013;28;20479;-76
2022/12/02 01:41:44;;;;;;;6.37;4.10;;;;;;;-141.28;100.00;51932.22;5055675;28;20952;-76
2022/12/02 01:44:13;;;;;;;6.07;3.33;;;;;;;-141.28;100.00;51983.28;5060817;28;20451;-75
2022/12/02 01:46:41;;;;;;;5.33;3.20;;;;;;;-141.28;100.00;52000.94;5072798;28;20939;-76
2022/12/02 01:49:08;;;;;;;6.17;3.60;;;;;;;-141.28;100.00;52089.31;5073677;28;20442;-74
2022/12/02 01:51:35;;;;;;;6.20;3.90;;;;;;;-141.28;100.00;52105.03;5060261;28;20442;-75
2022/12/02 01:54:03;;;;;;;6.67;3.50;;;;;;;-141.28;100.00;52038.25;5074028;28;20496;-77
2022/12/02 01:56:31;;;;;;;5.70;3.73;;;;;;;-141.28;100.00;52134.50;5073532;28;20529;-76
2022/12/02 01:58:58;;;;;;;5.10;3.37;;;;;;;-141.28;100.00;51999.00;5073152;28;20489;-75
2022/12/02 02:01:28;;;;;;;3.60;2.83;;;;;;;-141.28;100.00;52097.19;5073803;28;20886;-74
2022/12/02 02:03:56;;;;;;;4.87;3.33;;;;;;;-141.28;100.00;52053.97;5073868;28;20877;-76
2022/12/02 02:06:24;;;;;;;4.43;3.40;;;;;;;-141.28;100.00;52093.25;5075070;28;20450;-78
2022/12/02 02:08:52;;;;;;;4.00;3.10;;;;;;;-141.28;100.00;52014.69;5073632;28;20450;-77
2022/12/02 02:11:19;;;;;;;4.13;3.13;;;;;;;-141.28;100.00;52073.63;5074010;28;20875;-74
2022/12/02 02:13:46;;;;;;;7.90;3.70;;;;;;;-141.28;100.00;52110.94;5071066;28;20446;-75
2022/12/02 02:16:14;;;;;;;5.67;4.10;;;;;;;-141.28;100.00;51782.97;5062139;28;20446;-75
2022/12/02 02:18:42;;;;;;;6.40;4.20;;;;;;;-141.28;100.00;52203.22;5058621;28;20973;-75
2022/12/02 02:21:15;;;;;;;7.63;4.13;;;;;;;-141.28;100.00;52242.50;5053805;28;20511;-76
2022/12/02 02:23:43;;;;;;;5.80;4.20;;;;;;;-141.28;100.00;52213.03;5064557;28;20458;-75
2022/12/02 02:26:11;;;;;;;8.43;5.77;;;;;;;-141.28;100.00;52228.75;5073133;28;20504;-78
2022/12/02 02:28:38;;;;;;;7.97;4.80;;;;;;;-141.28;100.00;52222.88;5072755;28;20957;-78
2022/12/02 02:31:06;;;;;;;6.70;3.87;;;;;;;-141.28;100.00;52236.63;5073313;28;20469;-75
2022/12/02 02:33:34;;;;;;;9.30;4.33;;;;;;;-141.28;100.00;52277.84;5072539;28;20492;-76
2022/12/02 02:36:03;;;;;;;8.00;3.63;;;;;;;-141.28;100.00;52211.09;5072811;28;20494;-74
2022/12/02 02:38:31;;;;;;;8.33;4.17;;;;;;;-141.28;100.00;52112.88;5063379;28;20443;-75
2022/12/02 02:41:00;;;;;;;5.37;3.90;;;;;;;-141.28;100.00;52254.28;5077810;28;20543;-77
2022/12/02 02:43:29;;;;;;;12.03;6.00;;;;;;;-141.28;100.00;51859.56;5072063;28;20439;-78
2022/12/02 02:45:57;;;;;;;12.87;6.03;;;;;;;-141.28;100.00;52268.03;5072325;28;20826;-76
2022/12/02 02:48:25;;;;;;;10.23;5.10;;;;;;;-141.28;100.00;51802.63;5072357;28;20470;-74
2022/12/02 02:50:53;;;;;;;9.67;4.60;;;;;;;-141.28;100.00;52250.34;5072736;28;20451;-75
2022/12/02 02:53:23;;;;;;;7.20;4.33;;;;;;;-141.28;100.00;52234.66;5059131;28;20742;-76
2022/12/02 02:55:50;;;;;;;7.07;4.83;;;;;;;-141.28;100.00;52215.00;5072774;28;21008;-75
2022/12/02 02:58:20;;;;;;;6.80;4.27;;;;;;;-141.28;100.00;52160.03;5071880;28;20447;-74
2022/12/02 03:00:51;;;;;;;7.17;4.50;;;;;;;-141.28;100.00;52199.28;5071962;28;20501;-74
2022/12/02 03:03:21;;;;;;;7.07;4.73;;;;;;;-141.28;100.00;52207.16;5065204;28;20546;-76
2022/12/02 03:05:49;;;;;;;10.00;6.03;;;;;;;-141.28;100.00;52207.16;5067258;28;20450;-76
2022/12/02 03:08:16;;;;;;;9.70;6.50;;;;;;;-141.28;100.00;52067.72;5074349;28;20470;-74
2022/12/02 03:10:44;;;;;;;8.33;5.60;;;;;;;-141.28;100.00;52246.44;5081517;28;20496;-74
2022/12/02 03:13:12;;;;;;;9.50;5.87;;;;;;;-141.28;100.00;52254.28;5073409;28;20454;-77
2022/12/02 03:15:43;;;;;;;10.67;5.73;;;;;;;-141.28;100.00;52238.56;5055183;28;20980;-75
2022/12/02 03:18:11;;;;;;;12.90;6.90;;;;;;;-141.28;100.00;52181.63;5052984;28;20962;-75
2022/12/02 03:20:38;;;;;;;9.90;5.57;;;;;;;-141.28;100.00;52234.66;5052155;28;20955;-78
2022/12/02 03:23:05;;;;;;;9.07;6.13;;;;;;;-141.28;100.00;52246.44;5052450;28;20459;-76
2022/12/02 03:25:32;;;;;;;9.97;5.83;;;;;;;-141.28;100.00;51804.59;5061836;28;20454;-76
2022/12/02 03:27:59;;;;;;;7.33;4.70;;;;;;;-141.28;100.00;52328.91;5058875;28;20451;-78
2022/12/02 03:30:30;;;;;;;10.23;5.67;;;;;;;-141.28;100.00;52299.47;5072137;28;20454;-75
2022/12/02 03:32:59;;;;;;;9.57;5.63;;;;;;;-141.28;100.00;52309.28;5071589;28;20451;-76
2022/12/02 03:35:26;;;;;;;9.70;4.53;;;;;;;-141.28;100.00;52195.38;5072047;28;20510;-74
2022/12/02 03:37:54;;;;;;;8.73;5.20;;;;;;;-141.28;100.00;52242.50;5071544;28;20454;-75
2022/12/02 03:40:22;;;;;;;10.87;5.13;;;;;;;-141.28;100.00;52281.78;5071602;28;20497;-77
2022/12/02 03:42:50;;;;;;;7.77;4.90;;;;;;;-141.28;100.00;52291.59;5070718;28;20530;-77
2022/12/02 03:45:18;;;;;;;6.33;4.20;;;;;;;-141.28;100.00;52281.78;5071124;28;20516;-76
2022/12/02 03:47:45;;;;;;;6.57;4.30;;;;;;;-141.28;100.00;52273.94;5071011;28;20451;-75
2022/12/02 03:50:15;;;;;;;10.13;4.97;;;;;;;-141.28;100.00;52332.84;5071446;28;20447;-76
2022/12/02 03:52:41;;;;;;;7.67;4.43;;;;;;;-141.28;100.00;52313.19;5070664;28;20538;-75
2022/12/02 03:55:10;;;;;;;8.60;4.97;;;;;;;-141.28;100.00;52275.88;5071886;28;20512;-75
2022/12/02 03:57:39;;;;;;;7.53;5.00;;;;;;;-141.28;100.00;52332.84;5070329;28;20450;-78
2022/12/02 04:00:08;;;;;;;6.17;4.17;;;;;;;-141.28;100.00;52332.84;5069972;28;20474;-75
2022/12/02 04:02:36;;;;;;;8.63;4.97;;;;;;;-141.28;100.00;52303.38;5058623;28;20451;-76
2022/12/02 04:05:03;;;;;;;10.93;4.87;;;;;;;-141.28;100.00;52293.56;5069823;28;20450;-74
2022/12/02 04:07:31;;;;;;;6.13;4.63;;;;;;;-141.28;100.00;52246.44;5058479;28;20490;-75
2022/12/02 04:09:58;;;;;;;7.67;5.27;;;;;;;-141.28;100.00;52275.88;5069670;28;20462;-77
2022/12/02 04:12:25;;;;;;;10.30;5.47;;;;;;;-141.28;100.00;52301.41;5070706;28;20459;-77
2022/12/02 04:14:52;;;;;;;8.90;5.37;;;;;;;-141.28;100.00;52266.06;5059245;28;20525;-75
2022/12/02 04:17:19;;;;;;;8.60;5.30;;;;;;;-141.28;100.00;52140.38;5068340;28;20980;-75
2022/12/02 04:19:46;;;;;;;8.93;6.10;;;;;;;-141.28;100.00;52234.66;5071124;28;20479;-74
2022/12/02 04:22:13;;;;;;;11.60;5.53;;;;;;;-141.28;100.00;52273.94;5071625;28;20993;-74
2022/12/02 04:24:41;;;;;;;10.67;5.20;;;;;;;-141.28;100.00;52262.13;5071972;28;20523;-77
2022/12/02 04:27:09;;;;;;;7.63;4.70;;;;;;;-141.28;100.00;52234.66;5066662;28;20451;-75
2022/12/02 04:29:36;;;;;;;7.83;4.93;;;;;;;-141.28;100.00;52199.28;5062888;28;20447;-76
2022/12/02 04:32:03;;;;;;;8.73;4.87;;;;;;;-141.28;100.00;52238.56;5052234;28;20448;-76
2022/12/02 04:34:29;;;;;;;8.40;5.47;;;;;;;-141.28;100.00;52246.44;5051812;28;20447;-75
2022/12/02 04:36:56;;;;;;;7.47;4.93;;;;;;;-141.28;100.00;52279.81;5051257;28;20486;-77
2022/12/02 04:39:23;;;;;;;7.63;5.20;;;;;;;-141.28;100.00;52273.94;5051372;28;20455;-75
2022/12/02 04:41:52;;;;;;;8.27;5.30;;;;;;;-141.28;100.00;52230.72;5051272;28;20873;-78
2022/12/02 04:44:19;;;;;;;8.97;5.70;;;;;;;-141.28;100.00;52246.44;5051964;28;20874;-76
2022/12/02 04:46:45;;;;;;;7.77;5.47;;;;;;;-141.28;100.00;52254.28;5051303;28;20525;-75
2022/12/02 04:49:12;;;;;;;9.47;5.57;;;;;;;-141.28;100.00;52271.97;5051508;28;20458;-75
2022/12/02 04:51:39;;;;;;;10.20;5.83;;;;;;;-141.28;100.00;52240.53;5051726;28;20885;-76
2022/12/02 04:54:06;;;;;;;9.80;6.30;;;;;;;-141.28;100.00;51955.78;5051648;28;20456;-76
2022/12/02 04:56:33;;;;;;;11.83;6.70;;;;;;;-141.28;100.00;52218.94;5051525;28;20447;-75
2022/12/02 04:59:02;;;;;;;13.87;8.00;;;;;;;-141.28;100.00;52199.28;5054089;28;20447;-75
2022/12/02 05:01:29;;;;;;;10.30;7.13;;;;;;;-141.28;100.00;52254.28;5043430;28;20487;-78
2022/12/02 05:03:56;;;;;;;12.10;7.17;;;;;;;-141.28;100.00;52142.34;5053506;28;20447;-75
2022/12/02 05:06:24;;;;;;;11.03;6.70;;;;;;;-141.28;100.00;52175.72;5052769;28;20451;-77
2022/12/02 05:08:51;;;;;;;11.03;5.87;;;;;;;-141.28;100.00;52203.22;5052728;28;20482;-74
2022/12/02 05:11:19;;;;;;;10.17;5.97;;;;;;;-141.28;100.00;52242.50;5052238;28;20520;-73
2022/12/02 05:13:46;;;;;;;13.40;7.83;;;;;;;-141.28;100.00;52183.59;5052485;28;20467;-74
2022/12/02 05:16:14;;;;;;;11.53;6.83;;;;;;;-141.28;100.00;52073.63;5052841;28;20451;-74
2022/12/02 05:18:41;;;;;;;11.73;6.30;;;;;;;-141.28;100.00;52120.75;5052519;28;20446;-73
2022/12/02 05:21:08;;;;;;;12.67;7.10;;;;;;;-141.28;100.00;52118.78;5054585;28;20938;-76
2022/12/02 05:23:35;;;;;;;9.13;6.47;;;;;;;-141.28;100.00;52118.78;5054852;28;20520;-75
2022/12/02 05:26:02;;;;;;;11.07;6.30;;;;;;;-141.28;100.00;52103.06;5054658;28;20443;-74
2022/12/02 05:28:29;;;;;;;18.57;11.17;;;;;;;-141.28;100.00;52046.13;5055615;28;20977;-76
2022/12/02 05:30:56;;;;;;;17.67;9.90;;;;;;;-141.28;100.00;52038.25;5055671;28;20454;-75
2022/12/02 05:33:24;;;;;;;20.10;11.10;;;;;;;-141.28;100.00;52022.56;5056331;28;20442;-74
2022/12/02 05:35:51;;;;;;;28.50;16.93;;;;;;;-141.28;100.00;51991.13;5055933;28;21001;-76
2022/12/02 05:38:18;;;;;;;29.17;17.70;;;;;;;-141.28;100.00;51926.34;5057642;28;20439;-74
2022/12/02 05:40:45;;;;;;;25.10;14.90;;;;;;;-141.28;100.00;51957.75;5055767;28;20568;-75
2022/12/02 05:43:18;;;;;;;18.23;10.53;;;;;;;-141.28;100.00;51959.72;5057084;28;20511;-76
2022/12/02 05:45:47;;;;;;;19.17;9.40;;;;;;;-141.28;100.00;51916.50;5056668;28;20980;-76
2022/12/02 05:48:16;;;;;;;15.77;8.70;;;;;;;-141.28;100.00;51881.16;5068469;28;20466;-73
2022/12/02 05:50:46;;;;;;;15.77;8.53;;;;;;;-141.28;100.00;51889.03;5069189;28;20470;-72
2022/12/02 05:53:21;;;;;;;13.17;7.57;;;;;;;-141.28;100.00;51940.06;5071247;28;20447;-75
2022/12/02 05:55:49;;;;;;;12.07;8.13;;;;;;;-141.28;100.00;51918.47;5071588;28;20477;-74
2022/12/02 05:58:17;;;;;;;11.43;7.80;;;;;;;-141.28;100.00;51979.34;5070341;28;20443;-75
2022/12/02 06:00:45;;;;;;;20.70;10.23;;;;;;;-141.28;100.00;51951.84;5064731;28;20511;-75
2022/12/02 06:03:18;;;;;;;26.13;14.63;;;;;;;-141.28;100.00;51955.78;5070239;28;20960;-74
2022/12/02 06:05:48;;;;;;;53.13;24.10;;;;;;;-141.28;100.00;51983.28;5073921;28;20446;-76
2022/12/02 06:08:18;;;;;;;47.27;24.53;;;;;;;-141.28;100.00;51997.03;5073961;28;20975;-75
2022/12/02 06:10:49;;;;;;;20.30;11.47;;;;;;;-141.28;100.00;51767.28;5077307;28;20542;-75
2022/12/02 06:13:20;;;;;;;19.07;10.40;;;;;;;-141.28;100.00;52042.19;5073575;28;20454;-78
2022/12/02 06:15:49;;;;;;;20.77;11.17;;;;;;;-141.28;100.00;52048.09;5059408;28;20450;-75
2022/12/02 06:18:18;;;;;;;21.00;10.77;;;;;;;-141.28;100.00;52108.97;5061713;28;20459;-78
2022/12/02 06:20:48;;;;;;;23.47;13.40;;;;;;;-141.28;100.00;52114.84;5053804;28;20502;-75
2022/12/02 06:23:19;;;;;;;19.53;11.20;;;;;;;-141.28;100.00;52032.38;5054145;28;20577;-75
2022/12/02 06:25:47;;;;;;;16.70;9.50;;;;;;;-141.28;100.00;52222.88;5053447;28;20898;-78
2022/12/02 06:28:25;;;;;;;23.03;10.67;;;;;;;-141.28;100.00;52026.47;5054292;28;20508;-77
2022/12/02 06:30:56;;;;;;;18.53;10.83;;;;;;;-141.28;100.00;52207.16;5057661;28;20456;-78
2022/12/02 06:33:29;;;;;;;17.53;9.03;;;;;;;-141.28;100.00;52152.16;5072439;28;20468;-77
2022/12/02 06:35:59;;;;;;;12.77;8.17;;;;;;;-141.28;100.00;52215.00;5064329;28;20509;-75
2022/12/02 06:38:30;;;;;;;13.70;7.80;;;;;;;-141.28;100.00;52216.97;5062236;28;20444;-77
2022/12/02 06:41:00;;;;;;;10.43;6.73;;;;;;;-141.28;100.00;52254.28;5055616;28;20871;-76
2022/12/02 06:43:31;;;;;;;12.73;7.10;;;;;;;-141.28;100.00;52301.41;5070276;28;20538;-73
2022/12/02 06:45:59;;;;;;;11.70;7.30;;;;;;;-141.28;100.00;52273.94;5073111;28;20515;-80
2022/12/02 06:48:32;;;;;;;14.70;9.77;;;;;;;-141.28;100.00;52336.78;5072871;28;20967;-75
2022/12/02 06:51:12;;;;;;;14.93;8.30;;;;;;;-141.28;100.00;52254.28;5073280;28;20512;-76
2022/12/02 06:53:43;;;;;;;16.17;8.27;;;;;;;-141.28;100.00;52222.88;5068231;28;20504;-76
2022/12/02 06:56:22;;;;;;;13.93;8.83;;;;;;;-141.28;100.00;52218.94;5053406;28;20453;-77
2022/12/02 06:58:55;;;;;;;17.03;9.97;;;;;;;-141.28;100.00;52128.59;5040749;28;20474;-77
2022/12/02 07:01:26;;;;;;;12.40;7.60;;;;;;;-141.28;100.00;52108.97;5066053;28;20573;-78
2022/12/02 07:04:21;;;;;;;17.47;9.57;;;;;;;-141.28;100.00;51969.53;5062557;28;20834;-75
2022/12/02 07:06:54;;;;;;;14.73;8.30;;;;;;;-141.28;100.00;51940.06;5046762;28;20445;-74
2022/12/02 07:09:29;;;;;;;15.87;9.93;;;;;;;-141.28;100.00;51967.56;5072635;28;20537;-75
2022/12/02 07:11:59;;;;;;;14.73;10.43;;;;;;;-141.28;100.00;51963.63;5072522;28;20442;-75
2022/12/02 07:14:38;;;;;;;16.40;10.13;;;;;;;-141.28;100.00;52010.78;5064361;28;20455;-77
2022/12/02 07:17:20;;;;;;;14.03;8.37;;;;;;;-141.28;100.00;52002.91;5066936;28;20499;-76
2022/12/02 07:19:50;;;;;;;13.30;8.03;;;;;;;-141.28;100.00;51938.13;5071924;28;20537;-77
2022/12/02 07:22:22;;;;;;;16.17;8.90;;;;;;;-141.28;100.00;51971.50;5070516;28;20594;-77
2022/12/02 07:24:55;;;;;;;18.40;10.13;;;;;;;-141.28;100.00;51859.56;5072390;28;20438;-75
2022/12/02 07:27:24;;;;;;;17.90;10.03;;;;;;;-141.28;100.00;51822.25;5070692;28;20533;-75
2022/12/02 07:29:53;;;;;;;19.73;10.80;;;;;;;-141.28;100.00;51755.50;5071244;28;20458;-75
2022/12/02 07:32:20;;;;;;;20.10;10.77;;;;;;;-141.28;100.00;51853.69;5059367;28;20439;-74
2022/12/02 07:34:48;;;;;;;22.07;12.07;;;;;;;-141.28;100.00;51951.84;5070928;28;20530;-75
2022/12/02 07:37:15;;;;;;;18.90;11.53;;;;;;;-141.28;100.00;51955.78;5071651;28;20478;-77
2022/12/02 07:39:43;;;;;;;20.13;12.73;;;;;;;-141.28;100.00;51949.91;5070302;28;20833;-77
2022/12/02 07:42:10;;;;;;;22.57;12.00;;;;;;;-141.28;100.00;51947.94;5072117;28;20926;-78
2022/12/02 07:44:39;;;;;;;19.17;12.33;;;;;;;-141.28;100.00;51965.59;5071497;28;20442;-75
2022/12/02 07:47:06;;;;;;;21.07;10.80;;;;;;;-141.28;100.00;51975.44;5072779;28;20465;-78
2022/12/02 07:49:33;;;;;;;19.20;10.37;;;;;;;-141.28;100.00;51991.13;5073152;28;20484;-75
2022/12/02 07:52:00;;;;;;;18.00;10.67;;;;;;;-141.28;100.00;51983.28;5096419;28;20458;-77
2022/12/02 07:54:27;;;;;;;18.40;9.83;;;;;;;-141.28;100.00;51857.59;5095507;28;20461;-75
2022/12/02 07:56:55;;;;;;;23.33;15.00;;;;;;;-141.28;100.00;51786.91;5094262;28;20446;-73
2022/12/02 07:59:22;;;;;;;19.07;11.27;;;;;;;-141.28;100.00;51559.13;5095806;28;20445;-74
2022/12/02 08:01:49;;;;;;;16.87;10.20;;;;;;;-141.28;100.00;51618.03;5095091;28;20500;-75
2022/12/02 08:04:17;;;;;;;19.07;10.90;;;;;;;-141.28;100.00;51539.50;5061069;28;20450;-74
2022/12/02 08:06:44;;;;;;;18.97;10.87;;;;;;;-141.28;100.00;51610.19;5075415;28;20550;-75
2022/12/02 08:09:11;;;;;;;18.23;10.93;;;;;;;-141.28;100.00;51590.56;5072235;28;20902;-76
2022/12/02 08:11:38;;;;;;;21.00;10.83;;;;;;;-141.28;100.00;51598.41;5071993;28;20451;-76
2022/12/02 08:14:07;;;;;;;16.67;9.90;;;;;;;-141.28;100.00;51570.91;5067643;28;20958;-77
2022/12/02 08:16:35;;;;;;;19.37;11.30;;;;;;;-141.28;100.00;51488.44;5062603;28;20462;-77
2022/12/02 08:19:02;;;;;;;22.20;12.20;;;;;;;-141.28;100.00;51441.31;5071850;28;20472;-75
2022/12/02 08:21:31;;;;;;;26.07;14.97;;;;;;;-141.28;100.00;51394.22;5071363;28;20486;-78
2022/12/02 08:23:58;;;;;;;25.70;13.00;;;;;;;-141.28;100.00;51390.28;5071530;28;20478;-75
2022/12/02 08:26:26;;;;;;;24.03;13.97;;;;;;;-141.28;100.00;51398.13;5059688;28;20451;-75
2022/12/02 08:28:54;;;;;;;28.23;13.20;;;;;;;-141.28;100.00;51337.28;5057417;28;20442;-76
2022/12/02 08:31:22;;;;;;;23.53;14.03;;;;;;;-141.28;100.00;51284.25;5071792;28;20447;-75
2022/12/02 08:33:49;;;;;;;21.37;13.57;;;;;;;-141.28;100.00;50679.59;5075501;28;20884;-74
2022/12/02 08:36:16;;;;;;;24.27;14.53;;;;;;;-141.28;100.00;51138.97;5079706;28;20478;-75
2022/12/02 08:38:43;;;;;;;22.70;15.20;;;;;;;-141.28;100.00;51107.56;5079541;28;20442;-76
2022/12/02 08:41:11;;;;;;;29.23;14.93;;;;;;;-141.28;100.00;51084.00;5070351;28;20857;-75
2022/12/02 08:43:39;;;;;;;21.10;14.20;;;;;;;-141.28;100.00;51076.16;5051694;28;20530;-76
2022/12/02 08:46:06;;;;;;;22.57;13.27;;;;;;;-141.28;100.00;50991.72;5051908;28;20447;-75
2022/12/02 08:48:35;;;;;;;22.73;14.10;;;;;;;-141.28;100.00;50946.59;5043423;28;20452;-75
2022/12/02 08:51:02;;;;;;;19.77;11.27;;;;;;;-141.28;100.00;50820.94;5047186;28;20443;-75
2022/12/02 08:53:29;;;;;;;17.70;10.63;;;;;;;-141.28;100.00;50903.41;5073270;28;20434;-76
2022/12/02 08:55:57;;;;;;;16.00;10.63;;;;;;;-141.28;100.00;50883.75;5075314;28;20459;-78
2022/12/02 08:58:24;;;;;;;20.90;12.60;;;;;;;-141.28;100.00;50868.06;5074854;28;20446;-76
2022/12/02 09:00:51;;;;;;;20.57;12.07;;;;;;;-141.28;100.00;50818.97;5068852;28;20448;-75
2022/12/02 09:03:18;;;;;;;17.10;11.23;;;;;;;-141.28;100.00;50828.78;5068054;28;20454;-78
2022/12/02 09:05:47;;;;;;;15.03;9.57;;;;;;;-141.28;100.00;50801.31;5074726;28;20445;-75
2022/12/02 09:08:14;;;;;;;15.23;9.60;;;;;;;-141.28;100.00;50793.47;5061971;28;20505;-75
2022/12/02 09:10:41;;;;;;;14.97;10.27;;;;;;;-141.28;100.00;50789.53;5051796;28;20450;-76
2022/12/02 09:13:08;;;;;;;20.70;11.20;;;;;;;-141.28;100.00;50750.28;5079407;28;20795;-77
2022/12/02 09:15:35;;;;;;;17.73;11.07;;;;;;;-141.28;100.00;50703.16;5065853;28;20487;-75
2022/12/02 09:18:03;;;;;;;20.30;11.13;;;;;;;-141.28;100.00;50691.38;5080061;28;20447;-74
2022/12/02 09:20:32;;;;;;;19.33;11.10;;;;;;;-141.28;100.00;50642.31;5077886;28;20443;-74
2022/12/02 09:23:03;;;;;;;20.17;11.83;;;;;;;-141.28;100.00;50712.97;5057363;28;20605;-78
2022/12/02 09:25:30;;;;;;;17.83;11.17;;;;;;;-141.28;100.00;50699.22;5058975;28;20451;-76
2022/12/02 09:27:57;;;;;;;15.93;10.30;;;;;;;-141.28;100.00;50683.53;5064849;28;20453;-78
2022/12/02 09:30:24;;;;;;;20.10;10.27;;;;;;;-141.28;100.00;50734.56;5074702;28;20450;-75
2022/12/02 09:32:51;;;;;;;13.03;9.17;;;;;;;-141.28;100.00;50732.59;5068581;28;20448;-77
2022/12/02 09:35:18;;;;;;;13.33;9.33;;;;;;;-141.28;100.00;50675.69;5054666;28;20463;-78
2022/12/02 09:37:45;;;;;;;14.73;9.23;;;;;;;-141.28;100.00;50624.63;5055261;28;20447;-75
2022/12/02 09:40:14;;;;;;;15.50;10.30;;;;;;;-141.28;100.00;50173.19;5056586;28;20583;-75
2022/12/02 09:42:42;;;;;;;14.77;9.67;;;;;;;-141.28;100.00;50565.75;5042842;28;20503;-73
2022/12/02 09:45:09;;;;;;;16.10;10.17;;;;;;;-141.28;100.00;50514.72;5055763;28;20530;-78
2022/12/02 09:47:36;;;;;;;16.57;10.20;;;;;;;-141.28;100.00;50491.16;5055122;28;20552;-76
2022/12/02 09:50:05;;;;;;;15.63;10.60;;;;;;;-141.28;100.00;50471.53;5055340;28;20954;-75
2022/12/02 09:52:32;;;;;;;18.63;11.43;;;;;;;-141.28;100.00;50455.84;5054149;28;20870;-76
2022/12/02 09:55:02;;;;;;;15.07;10.00;;;;;;;-141.28;100.00;50455.84;5055391;28;20439;-75
2022/12/02 09:57:33;;;;;;;18.13;11.47;;;;;;;-141.28;100.00;50408.72;5055174;28;20538;-77
2022/12/02 10:00:02;;;;;;;21.63;13.20;;;;;;;-141.28;100.00;50353.75;5054784;28;20435;-76
2022/12/02 10:02:31;;;;;;;25.70;15.63;;;;;;;-141.28;100.00;50318.44;5054690;28;20574;-78
2022/12/02 10:05:04;;;;;;;27.47;17.57;;;;;;;-141.28;100.00;50271.31;5054418;28;20473;-75
2022/12/02 10:07:32;;;;;;;41.53;21.73;;;;;;;-141.28;100.00;50304.69;5054260;28;20463;-79
2022/12/02 10:10:00;;;;;;;33.57;19.43;;;;;;;-141.28;100.00;50300.78;5054548;28;20841;-76
2022/12/02 10:12:29;;;;;;;42.97;21.63;;;;;;;-141.28;100.00;50338.06;5053999;28;20450;-77
2022/12/02 10:15:00;;;;;;;42.30;24.10;;;;;;;-141.28;100.00;50330.22;5053253;28;20969;-78
2022/12/02 10:17:27;;;;;;;41.23;23.90;;;;;;;-141.28;100.00;50338.06;5053830;28;20549;-75
2022/12/02 10:19:54;;;;;;;37.97;22.33;;;;;;;-141.28;100.00;50326.28;5053762;28;20452;-75
2022/12/02 10:22:22;;;;;;;35.37;21.83;;;;;;;-141.28;100.00;50316.47;5059092;28;20493;-78
2022/12/02 10:24:50;;;;;;;37.13;21.93;;;;;;;-141.28;100.00;50343.94;5061046;28;20439;-77
2022/12/02 10:27:25;;;;;;;39.30;22.47;;;;;;;-141.28;100.00;50287.03;5067959;28;20461;-75
2022/12/02 10:29:52;;;;;;;39.83;22.83;;;;;;;-141.28;100.00;50351.81;5072676;28;20457;-75
2022/12/02 10:32:23;;;;;;;38.23;21.13;;;;;;;-141.28;100.00;50310.59;5070984;28;20454;-75
2022/12/02 10:35:05;;;;;;;33.30;20.47;;;;;;;-141.28;100.00;50196.75;5053555;28;20958;-75
2022/12/02 10:37:34;;;;;;;34.20;21.13;;;;;;;-141.28;100.00;50236.00;5053188;28;20482;-75
2022/12/02 10:40:13;;;;;;;31.43;18.50;;;;;;;-141.28;100.00;50210.47;5065716;28;20451;-75
2022/12/02 10:42:40;;;;;;;33.93;20.50;;;;;;;-141.28;100.00;50157.50;5041218;28;20565;-77
2022/12/02 10:45:20;;;;;;;31.53;18.90;;;;;;;-141.28;100.00;50145.72;5053304;28;20525;-78
2022/12/02 10:47:49;;;;;;;34.60;18.67;;;;;;;-141.28;100.00;50130.00;5053742;28;20448;-77
2022/12/02 10:50:21;;;;;;;30.87;18.00;;;;;;;-141.28;100.00;50124.13;5053094;28;20855;-77
2022/12/02 10:52:51;;;;;;;33.27;20.13;;;;;;;-141.28;100.00;50122.16;5053480;28;20451;-75
2022/12/02 10:55:19;;;;;;;31.13;20.57;;;;;;;-141.28;100.00;50110.38;5054235;28;20455;-76
2022/12/02 10:57:47;;;;;;;33.20;20.00;;;;;;;-141.28;100.00;50124.13;5053199;28;20443;-76
2022/12/02 11:00:17;;;;;;;36.90;21.17;;;;;;;-141.28;100.00;50133.94;5054331;28;20454;-76
2022/12/02 11:02:46;;;;;;;34.57;20.90;;;;;;;-141.28;100.00;49872.91;5053281;28;20494;-75
2022/12/02 11:05:17;;;;;;;40.27;21.13;;;;;;;-141.28;100.00;50157.50;5053871;28;20451;-75
2022/12/02 11:07:55;;;;;;;37.27;21.47;;;;;;;-141.28;100.00;50135.91;5064693;28;20843;-76
2022/12/02 11:10:25;;;;;;;37.87;21.13;;;;;;;-141.28;100.00;50108.44;5062168;28;20523;-75
2022/12/02 11:13:07;;;;;;;41.03;21.23;;;;;;;-141.28;100.00;50102.53;5072053;28;20450;-76
2022/12/02 11:15:41;;;;;;;37.73;21.50;;;;;;;-141.28;100.00;50082.91;5051535;28;20500;-73
2022/12/02 11:18:10;;;;;;;36.53;21.63;;;;;;;-141.28;100.00;50082.91;5053036;28;20454;-78